Time;durP1;ratioP1;P1;durP2;ratioP2;P2;SDS_P1;SDS_P2;PMS_P1;PMS_P2;Temp;Humidity;BMP_temperature;BMP_pressure;BME280_temperature;BME280_humidity;BME280_pressure;Samples;Min_cycle;Max_cycle;Signal;HPM_P1;HPM_P2
2023/11/03 00:00:13;;;;;;;1.97;1.00;;;11.90;90.20;;;;;;5075844;28;20950;-60
2023/11/03 00:02:43;;;;;;;12.33;1.40;;;11.80;89.70;;;;;;5075919;28;20474;-60
2023/11/03 00:05:11;;;;;;;4.97;1.10;;;11.80;90.00;;;;;;5075969;28;20544;-60
2023/11/03 00:07:38;;;;;;;8.70;1.33;;;11.70;90.00;;;;;;5075986;28;20470;-60
2023/11/03 00:10:06;;;;;;;7.93;1.40;;;11.70;90.00;;;;;;5076044;28;20454;-60
2023/11/03 00:12:34;;;;;;;3.87;0.90;;;11.70;90.00;;;;;;5075569;28;20477;-60
2023/11/03 00:15:01;;;;;;;2.43;0.97;;;11.70;90.10;;;;;;5075928;28;20448;-61
2023/11/03 00:17:28;;;;;;;1.50;0.93;;;11.70;90.10;;;;;;5076317;28;20448;-60
2023/11/03 00:19:56;;;;;;;3.40;1.60;;;11.70;90.00;;;;;;5075910;28;20820;-60
2023/11/03 00:22:23;;;;;;;5.13;0.80;;;11.70;90.00;;;;;;5075865;28;20468;-61
2023/11/03 00:24:50;;;;;;;3.83;0.80;;;11.80;89.70;;;;;;5075984;28;20852;-60
2023/11/03 00:27:17;;;;;;;2.70;1.10;;;11.80;89.50;;;;;;5075793;28;20458;-60
2023/11/03 00:29:43;;;;;;;4.37;1.27;;;11.80;89.60;;;;;;5075850;28;20472;-60
2023/11/03 00:32:10;;;;;;;8.90;1.10;;;11.80;89.20;;;;;;5075894;28;20463;-60
2023/11/03 00:34:38;;;;;;;2.00;0.67;;;11.70;89.40;;;;;;5075754;28;20444;-60
2023/11/03 00:37:07;;;;;;;4.50;1.40;;;11.80;89.00;;;;;;5075515;28;20448;-60
2023/11/03 00:39:33;;;;;;;9.93;0.83;;;11.70;89.00;;;;;;5075484;28;20911;-60
2023/11/03 00:42:00;;;;;;;2.40;0.77;;;11.70;89.00;;;;;;5075206;28;20838;-60
2023/11/03 00:44:27;;;;;;;3.67;1.20;;;11.70;89.20;;;;;;5075340;28;20901;-60
2023/11/03 00:46:53;;;;;;;4.90;1.30;;;11.70;89.10;;;;;;5075473;28;20816;-60
2023/11/03 00:49:20;;;;;;;4.83;0.83;;;11.70;89.20;;;;;;5075454;28;20447;-60
2023/11/03 00:51:47;;;;;;;3.10;1.73;;;11.60;88.90;;;;;;5074970;28;20994;-60
2023/11/03 00:54:15;;;;;;;4.43;0.90;;;11.70;89.30;;;;;;5075272;28;20448;-60
2023/11/03 00:56:42;;;;;;;3.47;0.93;;;11.60;88.90;;;;;;5075058;28;20472;-60
2023/11/03 00:59:09;;;;;;;2.40;1.10;;;11.60;88.70;;;;;;5075062;28;20480;-60
2023/11/03 01:01:35;;;;;;;7.60;1.00;;;11.60;89.50;;;;;;5074329;28;20460;-60
2023/11/03 01:04:02;;;;;;;4.77;1.33;;;11.70;88.90;;;;;;5074802;28;20528;-60
2023/11/03 01:06:29;;;;;;;4.37;1.00;;;11.70;88.60;;;;;;5074874;28;20437;-61
2023/11/03 01:08:57;;;;;;;2.70;0.80;;;11.60;88.30;;;;;;5074439;28;20961;-60
2023/11/03 01:11:26;;;;;;;6.93;1.53;;;11.60;88.90;;;;;;5074508;28;20576;-60
2023/11/03 01:13:53;;;;;;;7.90;1.23;;;11.60;88.40;;;;;;5074331;28;20484;-60
2023/11/03 01:16:22;;;;;;;2.80;0.90;;;11.60;88.30;;;;;;5074251;28;20475;-60
2023/11/03 01:18:49;;;;;;;1.47;1.10;;;11.60;88.50;;;;;;5074456;28;20530;-60
2023/11/03 01:21:18;;;;;;;2.53;0.80;;;11.60;88.40;;;;;;5074573;28;20441;-60
2023/11/03 01:23:47;;;;;;;1.70;0.73;;;11.60;88.30;;;;;;5074744;28;20544;-60
2023/11/03 01:26:14;;;;;;;3.67;0.93;;;11.60;88.60;;;;;;5074493;28;20535;-60
2023/11/03 01:28:43;;;;;;;7.10;1.13;;;11.60;88.70;;;;;;5074500;28;20441;-60
2023/11/03 01:31:11;;;;;;;8.83;1.07;;;11.60;89.00;;;;;;5074171;28;20522;-60
2023/11/03 01:33:40;;;;;;;4.70;1.33;;;11.60;88.40;;;;;;5074393;28;20506;-60
2023/11/03 01:36:08;;;;;;;2.40;0.87;;;11.50;88.80;;;;;;5074315;28;20543;-60
2023/11/03 01:38:35;;;;;;;3.83;0.93;;;11.50;88.90;;;;;;5074244;28;20530;-60
2023/11/03 01:41:02;;;;;;;2.37;0.87;;;11.50;90.00;;;;;;5073585;28;20842;-61
2023/11/03 01:43:29;;;;;;;5.83;1.20;;;11.50;89.50;;;;;;5074197;28;20451;-61
2023/11/03 01:45:58;;;;;;;3.20;1.10;;;11.50;89.60;;;;;;5074196;28;20491;-60
2023/11/03 01:48:26;;;;;;;5.30;1.17;;;11.60;89.70;;;;;;5074405;28;20475;-60
2023/11/03 01:50:54;;;;;;;5.40;1.50;;;11.50;89.10;;;;;;5074081;28;20445;-60
2023/11/03 01:53:21;;;;;;;2.80;0.80;;;11.50;89.50;;;;;;5073644;28;20827;-60
2023/11/03 01:55:48;;;;;;;6.37;0.90;;;11.60;90.00;;;;;;5074012;28;20444;-60
2023/11/03 01:58:16;;;;;;;4.67;0.93;;;11.60;89.40;;;;;;5073743;28;20480;-60
2023/11/03 02:00:43;;;;;;;3.40;1.10;;;11.60;89.40;;;;;;5073875;28;20444;-60
2023/11/03 02:03:11;;;;;;;5.97;1.00;;;11.60;89.00;;;;;;5073426;28;20966;-60
2023/11/03 02:05:38;;;;;;;3.57;0.90;;;11.60;88.80;;;;;;5073490;28;20452;-60
2023/11/03 02:08:05;;;;;;;3.83;0.80;;;11.60;89.10;;;;;;5073446;28;20452;-60
2023/11/03 02:10:32;;;;;;;2.17;0.73;;;11.50;88.90;;;;;;5073435;28;20460;-60
2023/11/03 02:13:00;;;;;;;3.90;1.13;;;11.60;89.20;;;;;;5073331;28;20465;-60
2023/11/03 02:15:27;;;;;;;4.53;1.20;;;11.60;89.30;;;;;;5073635;28;20476;-60
2023/11/03 02:17:53;;;;;;;4.60;0.70;;;11.60;89.30;;;;;;5073750;28;20443;-60
2023/11/03 02:20:22;;;;;;;6.83;1.60;;;11.40;89.60;;;;;;5073232;28;20488;-60
2023/11/03 02:22:53;;;;;;;4.73;1.30;;;11.40;89.80;;;;;;5073341;28;20497;-60
2023/11/03 02:25:20;;;;;;;2.03;1.07;;;11.50;90.00;;;;;;5073551;28;20431;-60
2023/11/03 02:27:47;;;;;;;4.67;1.33;;;11.60;90.20;;;;;;5072690;28;20441;-60
2023/11/03 02:30:14;;;;;;;2.40;0.70;;;11.50;90.00;;;;;;5073156;28;20819;-60
2023/11/03 02:32:41;;;;;;;5.07;0.97;;;11.50;89.80;;;;;;5073121;28;21025;-60
2023/11/03 02:35:09;;;;;;;4.30;0.60;;;11.40;89.70;;;;;;5073190;28;20449;-60
2023/11/03 02:37:36;;;;;;;3.20;1.10;;;11.40;89.60;;;;;;5073041;28;21000;-60
2023/11/03 02:40:05;;;;;;;3.43;0.93;;;11.40;89.90;;;;;;5073128;28;20480;-61
2023/11/03 02:42:31;;;;;;;2.30;1.37;;;11.40;90.20;;;;;;5073264;28;20460;-61
2023/11/03 02:44:58;;;;;;;3.70;1.00;;;11.40;90.10;;;;;;5073295;28;20447;-61
2023/11/03 02:47:25;;;;;;;4.30;1.30;;;11.40;90.10;;;;;;5073379;28;20475;-60
2023/11/03 02:49:52;;;;;;;4.33;0.80;;;11.50;90.40;;;;;;5073192;28;20443;-61
2023/11/03 02:52:19;;;;;;;3.07;1.10;;;11.50;90.20;;;;;;5072937;28;20518;-60
2023/11/03 02:54:45;;;;;;;5.03;0.80;;;11.50;90.10;;;;;;5073277;28;20463;-60
2023/11/03 02:57:13;;;;;;;4.10;1.00;;;11.50;90.10;;;;;;5073234;28;20469;-60
2023/11/03 02:59:40;;;;;;;2.90;0.80;;;11.50;90.10;;;;;;5073080;28;20510;-61
2023/11/03 03:02:09;;;;;;;2.20;0.73;;;11.50;90.10;;;;;;5073187;28;20464;-60
2023/11/03 03:04:35;;;;;;;7.70;1.00;;;11.50;90.00;;;;;;5072967;28;20467;-60
2023/11/03 03:07:02;;;;;;;3.70;1.03;;;11.50;90.00;;;;;;5073127;28;20445;-60
2023/11/03 03:09:29;;;;;;;2.97;0.90;;;11.50;90.10;;;;;;5073115;28;20440;-60
2023/11/03 03:11:56;;;;;;;3.90;1.20;;;11.50;90.00;;;;;;5072513;28;20479;-61
2023/11/03 03:14:24;;;;;;;2.50;0.90;;;11.50;89.30;;;;;;5072718;28;20992;-60
2023/11/03 03:16:51;;;;;;;1.70;0.73;;;11.50;90.00;;;;;;5073852;28;20467;-60
2023/11/03 03:19:18;;;;;;;3.47;0.80;;;11.50;90.20;;;;;;5072945;28;20488;-60
2023/11/03 03:21:44;;;;;;;6.30;1.43;;;11.50;90.00;;;;;;5072507;28;20472;-60
2023/11/03 03:24:11;;;;;;;8.93;2.23;;;11.50;90.10;;;;;;5073177;28;20444;-60
2023/11/03 03:26:38;;;;;;;6.43;1.20;;;11.50;90.30;;;;;;5072814;28;20958;-60
2023/11/03 03:29:05;;;;;;;2.77;1.20;;;11.50;90.30;;;;;;5073106;28;20449;-60
2023/11/03 03:31:33;;;;;;;8.67;1.30;;;11.40;90.20;;;;;;5072867;28;20464;-60
2023/11/03 03:33:59;;;;;;;4.73;1.40;;;11.40;90.40;;;;;;5073094;28;20440;-60
2023/11/03 03:36:26;;;;;;;4.97;1.10;;;11.40;90.30;;;;;;5072944;28;20452;-60
2023/11/03 03:38:53;;;;;;;4.80;1.17;;;11.40;90.40;;;;;;5072737;28;20492;-60
2023/11/03 03:41:20;;;;;;;4.67;0.97;;;11.40;90.50;;;;;;5076323;28;20440;-60
2023/11/03 03:43:46;;;;;;;6.40;1.53;;;11.40;90.50;;;;;;5076461;28;20440;-60
2023/11/03 03:46:13;;;;;;;5.10;1.13;;;11.40;90.50;;;;;;5076555;28;20459;-60
2023/11/03 03:48:41;;;;;;;6.20;1.40;;;11.40;90.60;;;;;;5076530;28;20471;-60
2023/11/03 03:51:08;;;;;;;8.50;1.10;;;11.30;90.60;;;;;;5076472;28;20467;-60
2023/11/03 03:53:34;;;;;;;6.43;1.90;;;11.20;90.80;;;;;;5076473;28;20441;-60
2023/11/03 03:56:01;;;;;;;5.73;1.27;;;11.20;91.10;;;;;;5076550;28;20444;-60
2023/11/03 03:58:28;;;;;;;9.60;1.47;;;11.20;91.20;;;;;;5076430;28;20445;-60
2023/11/03 04:00:54;;;;;;;2.30;1.17;;;11.20;90.90;;;;;;5075988;28;21000;-60
2023/11/03 04:03:21;;;;;;;7.70;1.73;;;11.20;91.40;;;;;;5076255;28;20471;-60
2023/11/03 04:05:49;;;;;;;3.23;1.17;;;11.10;91.50;;;;;;5076200;28;20440;-60
2023/11/03 04:08:16;;;;;;;4.70;1.43;;;11.10;91.70;;;;;;5075981;28;20460;-61
2023/11/03 04:10:42;;;;;;;4.77;1.30;;;11.10;91.90;;;;;;5075928;28;20879;-60
2023/11/03 04:13:09;;;;;;;5.17;1.30;;;11.00;91.70;;;;;;5075783;28;20844;-60
2023/11/03 04:15:36;;;;;;;5.13;1.80;;;11.00;92.00;;;;;;5075939;28;20441;-60
2023/11/03 04:18:02;;;;;;;3.60;1.07;;;11.00;91.80;;;;;;5076002;28;20452;-60
2023/11/03 04:20:30;;;;;;;8.33;1.83;;;11.00;92.00;;;;;;5075973;28;20842;-60
2023/11/03 04:22:58;;;;;;;7.27;1.30;;;11.00;91.90;;;;;;5076023;28;20510;-60
2023/11/03 04:25:24;;;;;;;10.47;1.70;;;11.00;92.00;;;;;;5075876;28;20850;-60
2023/11/03 04:27:51;;;;;;;8.60;1.50;;;11.00;92.00;;;;;;5075509;28;20966;-61
2023/11/03 04:30:18;;;;;;;7.30;2.00;;;11.00;92.00;;;;;;5075637;28;20821;-60
2023/11/03 04:32:45;;;;;;;12.07;1.70;;;11.10;92.00;;;;;;5075465;28;20471;-60
2023/11/03 04:35:11;;;;;;;9.80;1.73;;;11.00;91.90;;;;;;5075162;28;20958;-60
2023/11/03 04:37:38;;;;;;;4.70;1.33;;;11.00;91.80;;;;;;5075771;28;20449;-60
2023/11/03 04:40:08;;;;;;;8.20;2.40;;;10.90;92.10;;;;;;5075484;28;20842;-60
2023/11/03 04:42:35;;;;;;;4.70;1.60;;;10.90;92.40;;;;;;5075179;28;20986;-60
2023/11/03 04:45:04;;;;;;;4.70;1.30;;;10.90;92.40;;;;;;5075395;28;20490;-60
2023/11/03 04:47:31;;;;;;;9.30;1.57;;;10.90;92.30;;;;;;5075808;28;20452;-60
2023/11/03 04:49:58;;;;;;;7.57;2.10;;;10.90;92.70;;;;;;5075363;28;20437;-60
2023/11/03 04:52:24;;;;;;;7.67;1.90;;;10.80;92.30;;;;;;5074323;28;20468;-60
2023/11/03 04:54:51;;;;;;;8.60;1.70;;;10.80;92.50;;;;;;5074771;28;20965;-60
2023/11/03 04:57:21;;;;;;;6.10;1.53;;;10.90;92.60;;;;;;5075112;28;20437;-60
2023/11/03 04:59:49;;;;;;;5.30;1.10;;;10.90;92.40;;;;;;5076120;28;20479;-60
2023/11/03 05:02:17;;;;;;;15.10;1.60;;;10.80;92.40;;;;;;5074629;28;21097;-60
2023/11/03 05:04:43;;;;;;;10.70;2.47;;;10.80;92.50;;;;;;5075001;28;20445;-60
2023/11/03 05:07:10;;;;;;;11.77;2.10;;;10.80;92.60;;;;;;5075032;28;20436;-60
2023/11/03 05:09:37;;;;;;;4.57;1.70;;;10.80;92.50;;;;;;5074931;28;20522;-60
2023/11/03 05:12:04;;;;;;;7.00;1.40;;;10.80;92.50;;;;;;5074338;28;20476;-60
2023/11/03 05:14:32;;;;;;;10.07;1.83;;;10.80;92.70;;;;;;5074757;28;20441;-60
2023/11/03 05:16:59;;;;;;;8.00;1.60;;;10.80;92.70;;;;;;5074491;28;21072;-60
2023/11/03 05:19:27;;;;;;;6.77;1.60;;;10.80;92.90;;;;;;5074944;28;20489;-60
2023/11/03 05:21:54;;;;;;;5.50;1.53;;;10.80;92.60;;;;;;5074780;28;20476;-60
2023/11/03 05:24:22;;;;;;;7.43;1.93;;;10.80;92.70;;;;;;5074591;28;20977;-60
2023/11/03 05:26:49;;;;;;;9.80;1.67;;;10.80;92.70;;;;;;5074721;28;20457;-60
2023/11/03 05:29:16;;;;;;;12.97;2.00;;;10.80;92.80;;;;;;5074478;28;20958;-60
2023/11/03 05:31:44;;;;;;;9.90;1.97;;;10.80;92.70;;;;;;5074782;28;20816;-60
2023/11/03 05:34:11;;;;;;;10.60;1.90;;;10.80;92.70;;;;;;5074513;28;20445;-60
2023/11/03 05:36:37;;;;;;;3.90;1.53;;;10.80;92.80;;;;;;5074337;28;20447;-60
2023/11/03 05:39:04;;;;;;;5.03;1.33;;;10.80;93.00;;;;;;5074478;28;20441;-60
2023/11/03 05:41:31;;;;;;;7.63;1.80;;;10.80;93.10;;;;;;5074210;28;20461;-60
2023/11/03 05:43:58;;;;;;;6.87;1.40;;;10.80;93.00;;;;;;5074065;28;20448;-61
2023/11/03 05:46:25;;;;;;;9.47;2.10;;;10.80;93.10;;;;;;5073844;28;20939;-60
2023/11/03 05:48:53;;;;;;;3.93;1.40;;;10.80;93.00;;;;;;5074242;28;20440;-60
2023/11/03 05:51:21;;;;;;;5.87;1.37;;;10.80;93.10;;;;;;5074108;28;20796;-60
2023/11/03 05:53:48;;;;;;;6.67;1.30;;;10.80;93.10;;;;;;5074177;28;20444;-60
2023/11/03 05:56:15;;;;;;;7.73;1.57;;;10.80;93.10;;;;;;5073523;28;20809;-60
2023/11/03 05:58:41;;;;;;;9.53;1.50;;;10.90;93.30;;;;;;5074094;28;20456;-60
2023/11/03 06:01:09;;;;;;;3.60;1.37;;;10.90;93.20;;;;;;5073450;28;20483;-60
2023/11/03 06:03:36;;;;;;;4.20;1.33;;;10.90;92.90;;;;;;5073564;28;20444;-60
2023/11/03 06:06:06;;;;;;;7.53;1.17;;;10.90;92.90;;;;;;5073811;28;20445;-60
2023/11/03 06:08:33;;;;;;;4.30;1.70;;;10.90;93.00;;;;;;5073894;28;20428;-60
2023/11/03 06:10:59;;;;;;;7.50;1.47;;;10.90;92.90;;;;;;5073351;28;20459;-60
2023/11/03 06:13:26;;;;;;;9.13;1.70;;;10.90;93.00;;;;;;5073598;28;20464;-60
2023/11/03 06:15:53;;;;;;;6.37;1.97;;;10.90;93.00;;;;;;5073634;28;20441;-60
2023/11/03 06:18:19;;;;;;;5.77;1.50;;;10.90;92.80;;;;;;5073549;28;20444;-60
2023/11/03 06:20:46;;;;;;;2.57;1.03;;;11.00;92.90;;;;;;5073685;28;20492;-60
2023/11/03 06:23:14;;;;;;;8.47;1.73;;;10.90;93.00;;;;;;5073832;28;20880;-60
2023/11/03 06:25:41;;;;;;;7.33;1.20;;;11.00;92.90;;;;;;5073831;28;20445;-60
2023/11/03 06:28:08;;;;;;;6.07;1.93;;;11.00;92.70;;;;;;5074154;28;20441;-60
2023/11/03 06:30:34;;;;;;;5.50;1.63;;;11.00;92.80;;;;;;5074215;28;20479;-60
2023/11/03 06:33:01;;;;;;;7.57;1.67;;;11.00;92.70;;;;;;5074867;28;20465;-60
2023/11/03 06:35:30;;;;;;;9.60;1.97;;;11.00;92.80;;;;;;5074636;28;20451;-60
2023/11/03 06:37:56;;;;;;;4.77;1.87;;;11.10;92.70;;;;;;5074294;28;20502;-60
2023/11/03 06:40:25;;;;;;;5.87;1.07;;;11.10;92.60;;;;;;5073975;28;20829;-63
2023/11/03 06:42:51;;;;;;;36.73;4.00;;;11.10;92.60;;;;;;5073580;28;20560;-62
2023/11/03 06:45:18;;;;;;;3.00;1.17;;;11.10;92.30;;;;;;5073989;28;20876;-62
2023/11/03 06:47:45;;;;;;;6.37;1.70;;;11.20;92.40;;;;;;5073655;28;20202;-62
2023/11/03 06:50:12;;;;;;;4.50;1.23;;;11.20;92.60;;;;;;5073880;28;20441;-62
2023/11/03 06:52:38;;;;;;;9.43;1.73;;;11.20;92.50;;;;;;5073659;28;20468;-62
2023/11/03 06:55:07;;;;;;;9.47;3.33;;;11.30;92.10;;;;;;5073110;28;20827;-61
2023/11/03 06:57:35;;;;;;;3.67;1.60;;;11.30;92.10;;;;;;5072779;28;20448;-61
2023/11/03 07:00:02;;;;;;;10.93;2.23;;;11.30;92.00;;;;;;5073265;28;20480;-60
2023/11/03 07:02:29;;;;;;;8.60;1.07;;;11.30;92.10;;;;;;5073291;28;20541;-60
2023/11/03 07:04:56;;;;;;;4.87;1.43;;;11.30;92.00;;;;;;5073152;28;20444;-60
2023/11/03 07:07:22;;;;;;;7.63;1.00;;;11.20;92.00;;;;;;5073287;28;20495;-60
2023/11/03 07:09:49;;;;;;;3.63;0.90;;;11.20;92.10;;;;;;5073013;28;20953;-60
2023/11/03 07:12:16;;;;;;;4.27;1.60;;;11.20;92.10;;;;;;5073328;28;20480;-60
2023/11/03 07:14:45;;;;;;;6.53;1.40;;;11.20;92.20;;;;;;5074098;28;20484;-59
2023/11/03 07:17:12;;;;;;;3.63;1.03;;;11.30;92.30;;;;;;5076900;28;20451;-60
2023/11/03 07:19:39;;;;;;;2.43;1.07;;;11.30;92.20;;;;;;5077010;28;20472;-60
2023/11/03 07:22:06;;;;;;;4.03;1.10;;;11.30;92.10;;;;;;5076962;28;20484;-62
2023/11/03 07:24:33;;;;;;;2.60;1.03;;;11.40;91.90;;;;;;5077039;28;20440;-61
2023/11/03 07:27:00;;;;;;;5.60;1.53;;;11.50;91.70;;;;;;5076878;28;20445;-61
2023/11/03 07:29:26;;;;;;;4.10;1.00;;;11.50;91.80;;;;;;5076604;28;20950;-61
2023/11/03 07:31:54;;;;;;;9.23;1.60;;;11.50;91.70;;;;;;5076749;28;20467;-62
2023/11/03 07:34:21;;;;;;;1.43;0.90;;;11.50;91.40;;;;;;5076759;28;20436;-62
2023/11/03 07:36:48;;;;;;;7.93;0.90;;;11.50;91.30;;;;;;5076204;28;20974;-61
2023/11/03 07:39:14;;;;;;;8.30;1.80;;;11.50;91.50;;;;;;5076684;28;20809;-61
2023/11/03 07:41:43;;;;;;;3.73;1.13;;;11.50;91.60;;;;;;5076564;28;20483;-61
2023/11/03 07:44:11;;;;;;;4.33;1.13;;;11.50;91.70;;;;;;5076306;28;21015;-62
2023/11/03 07:46:37;;;;;;;7.13;1.40;;;11.50;91.70;;;;;;5076595;28;20882;-62
2023/11/03 07:49:06;;;;;;;3.57;1.13;;;11.50;91.90;;;;;;5076041;28;20440;-63
2023/11/03 07:51:33;;;;;;;6.97;1.37;;;11.60;91.90;;;;;;5076228;28;20468;-62
2023/11/03 07:54:00;;;;;;;5.03;0.83;;;11.60;91.90;;;;;;5076347;28;20440;-62
2023/11/03 07:56:28;;;;;;;4.00;1.43;;;11.50;91.70;;;;;;5075864;28;20452;-62
2023/11/03 07:58:55;;;;;;;6.17;1.13;;;11.50;92.00;;;;;;5076368;28;20456;-62
2023/11/03 08:01:21;;;;;;;5.77;1.37;;;11.40;92.10;;;;;;5075918;28;20483;-62
2023/11/03 08:03:48;;;;;;;6.73;1.50;;;11.40;92.10;;;;;;5076086;28;20483;-62
2023/11/03 08:06:16;;;;;;;4.40;1.33;;;11.40;92.20;;;;;;5076052;28;20451;-62
2023/11/03 08:08:43;;;;;;;6.20;1.43;;;11.40;92.40;;;;;;5076875;28;20444;-62
2023/11/03 08:11:10;;;;;;;14.33;1.63;;;11.30;92.50;;;;;;5075725;28;20452;-62
2023/11/03 08:13:37;;;;;;;3.23;1.00;;;11.20;92.80;;;;;;5076024;28;20960;-62
2023/11/03 08:16:06;;;;;;;7.33;1.70;;;11.20;92.80;;;;;;5075888;28;20824;-62
2023/11/03 08:18:33;;;;;;;4.53;1.40;;;11.20;92.90;;;;;;5075768;28;20452;-62
2023/11/03 08:21:00;;;;;;;5.90;1.57;;;11.20;93.20;;;;;;5075556;28;20899;-62
2023/11/03 08:23:28;;;;;;;8.20;1.10;;;11.10;93.20;;;;;;5075397;28;20994;-62
2023/11/03 08:25:54;;;;;;;9.67;1.57;;;11.10;93.10;;;;;;5074674;28;20871;-62
2023/11/03 08:28:21;;;;;;;3.70;1.47;;;11.20;93.40;;;;;;5075519;28;20816;-62
2023/11/03 08:30:48;;;;;;;4.80;1.10;;;11.20;93.30;;;;;;5075693;28;20489;-62
2023/11/03 08:33:15;;;;;;;8.50;1.43;;;11.30;93.20;;;;;;5075528;28;20472;-62
2023/11/03 08:35:41;;;;;;;6.10;1.50;;;11.40;93.10;;;;;;5075544;28;20445;-62
2023/11/03 08:38:08;;;;;;;6.50;1.40;;;11.50;93.00;;;;;;5075103;28;20946;-63
2023/11/03 08:40:36;;;;;;;3.50;1.20;;;11.50;92.90;;;;;;5075526;28;20449;-62
2023/11/03 08:43:04;;;;;;;4.30;1.40;;;11.60;92.70;;;;;;5075471;28;20469;-62
2023/11/03 08:45:31;;;;;;;6.70;2.17;;;11.60;92.90;;;;;;5075888;28;20448;-62
2023/11/03 08:47:58;;;;;;;6.40;1.63;;;11.70;92.50;;;;;;5075132;28;20935;-62
2023/11/03 08:50:25;;;;;;;5.13;1.60;;;11.80;92.20;;;;;;5075188;28;20484;-62
2023/11/03 08:52:52;;;;;;;5.30;1.43;;;11.80;92.40;;;;;;5075021;28;20830;-62
2023/11/03 08:55:19;;;;;;;6.63;3.10;;;11.90;92.50;;;;;;5075229;28;20528;-63
2023/11/03 08:57:47;;;;;;;7.63;1.87;;;12.00;92.30;;;;;;5074960;28;20452;-63
2023/11/03 09:00:15;;;;;;;5.03;1.50;;;12.00;91.90;;;;;;5075032;28;20444;-62
2023/11/03 09:02:43;;;;;;;2.93;1.23;;;12.00;91.50;;;;;;5074954;28;20469;-62
2023/11/03 09:05:11;;;;;;;5.30;1.87;;;12.10;91.40;;;;;;5074965;28;20452;-62
2023/11/03 09:07:38;;;;;;;7.60;1.40;;;12.20;91.20;;;;;;5074621;28;20938;-62
2023/11/03 09:10:07;;;;;;;7.33;1.30;;;12.20;91.10;;;;;;5074919;28;20441;-62
2023/11/03 09:12:34;;;;;;;5.43;2.13;;;12.30;91.40;;;;;;5074393;28;20493;-62
2023/11/03 09:15:03;;;;;;;6.20;1.40;;;12.30;91.00;;;;;;5074730;28;20569;-62
2023/11/03 09:17:31;;;;;;;8.07;1.73;;;12.30;91.00;;;;;;5074251;28;20954;-62
2023/11/03 09:19:58;;;;;;;6.87;1.47;;;12.40;90.90;;;;;;5074741;28;20455;-62
2023/11/03 09:22:25;;;;;;;6.03;1.30;;;12.40;91.10;;;;;;5074537;28;20496;-63
2023/11/03 09:24:54;;;;;;;7.37;2.10;;;12.40;91.00;;;;;;5074815;28;20448;-62
2023/11/03 09:27:21;;;;;;;7.53;1.70;;;12.40;90.60;;;;;;5074585;28;20456;-62
2023/11/03 09:29:48;;;;;;;4.50;1.80;;;12.40;91.00;;;;;;5075436;28;20457;-62
2023/11/03 09:32:17;;;;;;;8.90;2.00;;;12.50;90.70;;;;;;5073256;28;20446;-61
2023/11/03 09:34:45;;;;;;;12.27;2.00;;;12.60;90.30;;;;;;5074112;28;20308;-62
2023/11/03 09:37:12;;;;;;;7.43;1.60;;;12.60;90.50;;;;;;5073353;28;20547;-62
2023/11/03 09:39:39;;;;;;;10.37;2.00;;;12.70;90.70;;;;;;5074318;28;20448;-62
2023/11/03 09:42:08;;;;;;;5.90;1.70;;;12.80;90.10;;;;;;5074303;28;20465;-62
2023/11/03 09:44:37;;;;;;;5.60;1.70;;;12.90;89.70;;;;;;5074979;28;20451;-61
2023/11/03 09:47:05;;;;;;;6.77;1.90;;;13.00;90.00;;;;;;5074526;28;20445;-62
2023/11/03 09:49:34;;;;;;;10.67;1.63;;;13.00;88.10;;;;;;5074723;28;20800;-61
2023/11/03 09:52:03;;;;;;;8.23;2.07;;;12.90;88.70;;;;;;5074138;28;20538;-61
2023/11/03 09:54:31;;;;;;;14.33;2.10;;;12.80;88.60;;;;;;5074173;28;20469;-61
2023/11/03 09:57:00;;;;;;;8.20;2.13;;;12.70;88.30;;;;;;5073855;28;20483;-62
2023/11/03 09:59:26;;;;;;;7.77;1.97;;;12.70;89.10;;;;;;5073958;28;20444;-62
2023/11/03 10:01:54;;;;;;;6.30;1.40;;;12.70;89.10;;;;;;5073802;28;20461;-61
2023/11/03 10:04:21;;;;;;;4.03;1.60;;;12.70;88.80;;;;;;5074180;28;20805;-61
2023/11/03 10:06:50;;;;;;;10.05;2.05;;;12.80;89.50;;;;;;5072976;28;20434;-59
2023/11/03 10:09:17;;;;;;;6.60;2.20;;;13.10;88.50;;;;;;5073778;28;20198;-58
2023/11/03 10:11:44;;;;;;;11.80;1.90;;;13.20;87.20;;;;;;5073284;28;20493;-61
2023/11/03 10:14:11;;;;;;;19.70;2.00;;;13.30;87.10;;;;;;5073747;28;20451;-61
2023/11/03 10:16:38;;;;;;;7.87;1.90;;;13.40;86.40;;;;;;5073504;28;21008;-61
2023/11/03 10:19:06;;;;;;;8.17;1.70;;;13.50;86.30;;;;;;5073772;28;20433;-60
2023/11/03 10:21:35;;;;;;;3.67;1.30;;;13.50;85.50;;;;;;5073484;28;20456;-60
2023/11/03 10:24:03;;;;;;;9.47;1.87;;;13.60;85.20;;;;;;5073304;28;20962;-61
2023/11/03 10:26:30;;;;;;;6.07;2.03;;;13.50;85.10;;;;;;5073320;28;20799;-61
2023/11/03 10:28:57;;;;;;;7.03;1.53;;;13.90;84.50;;;;;;5073667;28;20467;-61
2023/11/03 10:31:26;;;;;;;8.83;1.70;;;14.20;83.60;;;;;;5073444;28;20920;-61
2023/11/03 10:33:55;;;;;;;8.10;1.60;;;14.30;81.80;;;;;;5073646;28;20551;-61
2023/11/03 10:36:22;;;;;;;5.87;2.07;;;14.40;81.20;;;;;;5073435;28;20445;-61
2023/11/03 10:38:49;;;;;;;6.47;1.47;;;14.40;79.90;;;;;;5073497;28;20853;-61
2023/11/03 10:41:19;;;;;;;6.37;1.60;;;14.40;80.50;;;;;;5073327;28;20441;-61
2023/11/03 10:43:55;;;;;;;9.20;2.27;;;14.40;81.20;;;;;;5073724;28;20452;-60
2023/11/03 10:46:31;;;;;;;7.23;1.97;;;14.50;82.40;;;;;;5073330;28;20432;-61
2023/11/03 10:49:11;;;;;;;9.00;1.97;;;14.60;80.60;;;;;;5072655;28;20436;-60
2023/11/03 10:51:41;;;;;;;9.37;2.03;;;14.80;79.60;;;;;;5073206;28;20904;-61
2023/11/03 10:54:17;;;;;;;11.47;1.73;;;14.80;77.70;;;;;;5073330;28;20440;-61
2023/11/03 10:56:46;;;;;;;4.90;1.57;;;14.90;78.00;;;;;;5073013;28;20902;-61
2023/11/03 10:59:14;;;;;;;8.27;1.90;;;15.00;76.50;;;;;;5072734;28;20980;-61
2023/11/03 11:01:46;;;;;;;11.10;2.33;;;15.20;76.30;;;;;;5073072;28;20461;-61
2023/11/03 11:04:18;;;;;;;9.90;1.60;;;15.50;74.90;;;;;;5073255;28;20456;-60
2023/11/03 11:06:48;;;;;;;10.73;2.03;;;15.80;73.90;;;;;;5073204;28;20432;-61
2023/11/03 11:09:22;;;;;;;5.23;1.50;;;15.50;72.70;;;;;;5073482;28;20425;-61
2023/11/03 11:11:50;;;;;;;8.93;1.60;;;15.30;74.10;;;;;;5072744;28;20575;-61
2023/11/03 11:14:20;;;;;;;4.80;2.17;;;15.20;74.20;;;;;;5073081;28;20449;-61
2023/11/03 11:16:47;;;;;;;6.47;2.00;;;15.40;75.00;;;;;;5073405;28;20441;-61
2023/11/03 11:19:15;;;;;;;8.70;1.50;;;15.60;73.40;;;;;;5072840;28;20481;-61
2023/11/03 11:21:49;;;;;;;11.70;1.87;;;15.90;71.90;;;;;;5072950;28;20496;-61
2023/11/03 11:24:20;;;;;;;5.90;2.03;;;15.90;70.60;;;;;;5073002;28;20432;-61
2023/11/03 11:26:49;;;;;;;13.97;2.77;;;15.70;70.90;;;;;;5072792;28;20421;-61
2023/11/03 11:29:26;;;;;;;9.77;1.93;;;15.60;72.30;;;;;;5072976;28;20445;-61
2023/11/03 11:31:55;;;;;;;11.20;1.80;;;15.60;72.90;;;;;;5072746;28;20581;-60
2023/11/03 11:34:22;;;;;;;7.97;2.10;;;15.50;72.80;;;;;;5072809;28;20445;-61
2023/11/03 11:36:51;;;;;;;8.20;2.07;;;15.40;73.40;;;;;;5072532;28;20946;-61
2023/11/03 11:39:20;;;;;;;9.30;2.17;;;15.40;73.10;;;;;;5072401;28;20864;-61
2023/11/03 11:41:50;;;;;;;9.90;1.97;;;15.50;74.30;;;;;;5072730;28;20456;-61
2023/11/03 11:44:19;;;;;;;16.07;2.43;;;15.50;72.30;;;;;;5070891;28;20499;-61
2023/11/03 11:46:52;;;;;;;13.20;2.77;;;15.10;71.30;;;;;;5052487;28;20890;-61
2023/11/03 11:49:21;;;;;;;14.13;2.07;;;14.90;72.20;;;;;;5052777;28;20422;-61
2023/11/03 11:51:49;;;;;;;7.00;1.60;;;14.90;72.40;;;;;;5052608;28;20572;-61
2023/11/03 11:54:18;;;;;;;13.50;2.27;;;15.00;72.40;;;;;;5052716;28;20442;-61
2023/11/03 11:56:45;;;;;;;11.10;2.33;;;15.00;71.00;;;;;;5052595;28;20445;-61
2023/11/03 11:59:16;;;;;;;6.97;1.80;;;15.00;70.70;;;;;;5051337;28;20488;-61
2023/11/03 12:01:43;;;;;;;9.93;1.97;;;15.00;71.40;;;;;;5054714;28;20466;-61
2023/11/03 12:04:11;;;;;;;9.47;1.50;;;15.10;70.60;;;;;;5056319;28;20444;-61
2023/11/03 12:06:40;;;;;;;8.40;1.70;;;15.40;69.30;;;;;;5056239;28;20857;-61
2023/11/03 12:09:07;;;;;;;10.97;1.70;;;15.60;67.40;;;;;;5056104;28;20442;-61
2023/11/03 12:11:34;;;;;;;7.53;2.00;;;15.90;67.80;;;;;;5055690;28;20528;-61
2023/11/03 12:14:01;;;;;;;11.27;2.30;;;16.30;65.10;;;;;;5055934;28;20446;-61
2023/11/03 12:16:28;;;;;;;6.13;1.40;;;16.30;64.20;;;;;;5055620;28;20441;-61
2023/11/03 12:18:54;;;;;;;12.20;2.50;;;16.20;63.60;;;;;;5055699;28;20456;-61
2023/11/03 12:21:24;;;;;;;7.03;2.30;;;16.00;64.90;;;;;;5055867;28;20818;-61
2023/11/03 12:23:51;;;;;;;12.63;2.37;;;15.80;64.90;;;;;;5055531;28;20499;-61
2023/11/03 12:26:18;;;;;;;9.53;1.67;;;15.80;64.30;;;;;;5055831;28;20799;-61
2023/11/03 12:28:45;;;;;;;14.30;1.97;;;16.10;64.50;;;;;;5055707;28;20812;-61
2023/11/03 12:31:13;;;;;;;8.33;1.47;;;16.20;63.30;;;;;;5055519;28;20487;-61
2023/11/03 12:33:41;;;;;;;7.73;2.10;;;16.20;63.10;;;;;;5055176;28;21003;-61
2023/11/03 12:36:08;;;;;;;8.50;1.80;;;16.10;63.70;;;;;;5055698;28;20446;-61
2023/11/03 12:38:44;;;;;;;7.00;1.77;;;15.80;64.70;;;;;;5055173;28;20445;-61
2023/11/03 12:41:12;;;;;;;10.40;2.90;;;15.50;66.60;;;;;;5064121;28;20871;-61
2023/11/03 12:43:39;;;;;;;8.70;1.70;;;15.40;67.60;;;;;;5075400;28;20452;-61
2023/11/03 12:46:08;;;;;;;7.17;1.90;;;15.30;68.10;;;;;;5075433;28;20449;-61